sensor_id;sensor_type;location;lat;lon;timestamp;temperature;humidity
13998;DHT22;7074;51.508;7.018;2023-03-04T05:02:44;7.10;99.90
13998;DHT22;7074;51.508;7.018;2023-03-04T05:05:12;7.10;99.90
13998;DHT22;7074;51.508;7.018;2023-03-04T05:07:40;6.90;99.90
13998;DHT22;7074;51.508;7.018;2023-03-04T05:10:08;7.00;99.90
13998;DHT22;7074;51.508;7.018;2023-03-04T05:12:36;7.00;99.90
13998;DHT22;7074;51.508;7.018;2023-03-04T05:15:04;7.00;99.90
13998;DHT22;7074;51.508;7.018;2023-03-04T05:17:32;6.90;99.90
13998;DHT22;7074;51.508;7.018;2023-03-04T05:20:01;6.90;99.90
13998;DHT22;7074;51.508;7.018;2023-03-04T05:22:29;6.80;99.90
13998;DHT22;7074;51.508;7.018;2023-03-04T05:24:56;6.90;99.90
13998;DHT22;7074;51.508;7.018;2023-03-04T05:27:24;6.90;99.90
13998;DHT22;7074;51.508;7.018;2023-03-04T05:29:52;6.90;99.90
13998;DHT22;7074;51.508;7.018;2023-03-04T05:32:20;7.00;99.90
13998;DHT22;7074;51.508;7.018;2023-03-04T05:34:47;7.10;99.90
13998;DHT22;7074;51.508;7.018;2023-03-04T05:37:16;7.20;99.90
13998;DHT22;7074;51.508;7.018;2023-03-04T05:39:43;7.20;99.90
13998;DHT22;7074;51.508;7.018;2023-03-04T05:42:11;7.40;99.90
13998;DHT22;7074;51.508;7.018;2023-03-04T05:44:38;7.20;99.90
13998;DHT22;7074;51.508;7.018;2023-03-04T05:47:06;7.30;99.90
13998;DHT22;7074;51.508;7.018;2023-03-04T05:49:33;7.30;99.90
13998;DHT22;7074;51.508;7.018;2023-03-04T05:52:01;7.30;99.90
13998;DHT22;7074;51.508;7.018;2023-03-04T05:54:29;7.30;99.90
13998;DHT22;7074;51.508;7.018;2023-03-04T05:56:57;7.30;99.90
13998;DHT22;7074;51.508;7.018;2023-03-04T05:59:25;7.30;99.90
13998;DHT22;7074;51.508;7.018;2023-03-04T06:01:54;7.30;99.90
13998;DHT22;7074;51.508;7.018;2023-03-04T06:04:22;7.10;99.90
13998;DHT22;7074;51.508;7.018;2023-03-04T06:06:49;7.10;99.90
13998;DHT22;7074;51.508;7.018;2023-03-04T06:09:16;7.20;99.90
13998;DHT22;7074;51.508;7.018;2023-03-04T06:11:47;7.20;99.90
13998;DHT22;7074;51.508;7.018;2023-03-04T06:14:14;7.20;99.90
13998;DHT22;7074;51.508;7.018;2023-03-04T06:16:41;7.20;99.90
13998;DHT22;7074;51.508;7.018;2023-03-04T06:19:10;7.10;99.90
13998;DHT22;7074;51.508;7.018;2023-03-04T06:21:38;7.10;99.90
13998;DHT22;7074;51.508;7.018;2023-03-04T06:24:08;7.10;99.90
13998;DHT22;7074;51.508;7.018;2023-03-04T06:26:35;7.10;99.90
13998;DHT22;7074;51.508;7.018;2023-03-04T06:29:07;7.10;99.90
13998;DHT22;7074;51.508;7.018;2023-03-04T06:31:34;7.10;99.90
13998;DHT22;7074;51.508;7.018;2023-03-04T06:34:01;7.10;99.90
13998;DHT22;7074;51.508;7.018;2023-03-04T06:36:28;7.20;99.90
13998;DHT22;7074;51.508;7.018;2023-03-04T06:38:56;7.30;99.90
13998;DHT22;7074;51.508;7.018;2023-03-04T06:41:23;7.30;99.90
13998;DHT22;7074;51.508;7.018;2023-03-04T06:43:52;7.30;99.90
13998;DHT22;7074;51.508;7.018;2023-03-04T06:46:21;7.30;99.90
13998;DHT22;7074;51.508;7.018;2023-03-04T06:48:48;7.30;99.90
13998;DHT22;7074;51.508;7.018;2023-03-04T06:51:16;7.30;99.90
13998;DHT22;7074;51.508;7.018;2023-03-04T06:53:43;7.30;99.90
13998;DHT22;7074;51.508;7.018;2023-03-04T06:56:12;7.30;99.90
13998;DHT22;7074;51.508;7.018;2023-03-04T06:58:41;7.30;99.90
13998;DHT22;7074;51.508;7.018;2023-03-04T07:01:10;7.20;99.90
13998;DHT22;7074;51.508;7.018;2023-03-04T07:03:39;7.20;99.90
13998;DHT22;7074;51.508;7.018;2023-03-04T07:06:07;7.30;99.90
13998;DHT22;7074;51.508;7.018;2023-03-04T07:08:35;7.40;99.90
13998;DHT22;7074;51.508;7.018;2023-03-04T07:11:03;7.30;99.90
13998;DHT22;7074;51.508;7.018;2023-03-04T07:13:30;7.40;99.90
13998;DHT22;7074;51.508;7.018;2023-03-04T07:16:00;7.30;99.90
13998;DHT22;7074;51.508;7.018;2023-03-04T07:18:27;7.30;99.90
13998;DHT22;7074;51.508;7.018;2023-03-04T07:20:56;7.30;99.90
13998;DHT22;7074;51.508;7.018;2023-03-04T07:23:23;7.30;99.90
13998;DHT22;7074;51.508;7.018;2023-03-04T07:25:50;7.30;99.90
13998;DHT22;7074;51.508;7.018;2023-03-04T07:28:18;7.20;99.90
13998;DHT22;7074;51.508;7.018;2023-03-04T07:30:45;7.30;99.90
13998;DHT22;7074;51.508;7.018;2023-03-04T07:33:13;7.40;99.90
13998;DHT22;7074;51.508;7.018;2023-03-04T07:35:40;7.40;99.90
13998;DHT22;7074;51.508;7.018;2023-03-04T07:38:09;7.30;99.90
13998;DHT22;7074;51.508;7.018;2023-03-04T07:40:39;7.40;99.90
13998;DHT22;7074;51.508;7.018;2023-03-04T07:43:06;7.40;99.90
13998;DHT22;7074;51.508;7.018;2023-03-04T07:45:34;7.30;99.90
13998;DHT22;7074;51.508;7.018;2023-03-04T07:48:01;7.40;99.90
13998;DHT22;7074;51.508;7.018;2023-03-04T07:50:28;7.40;99.90
13998;DHT22;7074;51.508;7.018;2023-03-04T07:52:56;7.30;99.90
13998;DHT22;7074;51.508;7.018;2023-03-04T07:55:24;7.30;99.90
13998;DHT22;7074;51.508;7.018;2023-03-04T07:57:52;7.50;99.90
13998;DHT22;7074;51.508;7.018;2023-03-04T08:00:20;7.50;99.90
13998;DHT22;7074;51.508;7.018;2023-03-04T08:02:48;7.60;99.90
13998;DHT22;7074;51.508;7.018;2023-03-04T08:05:15;7.50;99.90
13998;DHT22;7074;51.508;7.018;2023-03-04T08:07:42;7.60;99.90
13998;DHT22;7074;51.508;7.018;2023-03-04T08:10:10;7.60;99.90
13998;DHT22;7074;51.508;7.018;2023-03-04T08:12:39;7.50;99.90
13998;DHT22;7074;51.508;7.018;2023-03-04T08:15:07;7.70;99.90
13998;DHT22;7074;51.508;7.018;2023-03-04T08:17:35;7.60;99.90
13998;DHT22;7074;51.508;7.018;2023-03-04T08:20:04;7.70;99.90
13998;DHT22;7074;51.508;7.018;2023-03-04T08:23:12;7.60;99.90
13998;DHT22;7074;51.508;7.018;2023-03-04T08:26:10;7.70;99.90
13998;DHT22;7074;51.508;7.018;2023-03-04T08:29:57;7.70;99.90
13998;DHT22;7074;51.508;7.018;2023-03-04T08:33:03;7.80;99.90
13998;DHT22;7074;51.508;7.018;2023-03-04T08:36:23;7.90;99.90
13998;DHT22;7074;51.508;7.018;2023-03-04T08:39:20;7.90;99.90
13998;DHT22;7074;51.508;7.018;2023-03-04T08:41:50;7.80;99.90
13998;DHT22;7074;51.508;7.018;2023-03-04T08:44:17;7.90;99.90
13998;DHT22;7074;51.508;7.018;2023-03-04T08:46:46;7.90;99.90
13998;DHT22;7074;51.508;7.018;2023-03-04T08:49:14;7.90;99.90
13998;DHT22;7074;51.508;7.018;2023-03-04T08:52:08;7.80;99.90
13998;DHT22;7074;51.508;7.018;2023-03-04T08:54:36;7.80;99.90
13998;DHT22;7074;51.508;7.018;2023-03-04T08:57:03;7.90;99.90
13998;DHT22;7074;51.508;7.018;2023-03-04T08:59:32;8.00;99.90
13998;DHT22;7074;51.508;7.018;2023-03-04T09:02:01;8.10;99.90
13998;DHT22;7074;51.508;7.018;2023-03-04T09:04:28;8.20;99.90
13998;DHT22;7074;51.508;7.018;2023-03-04T09:06:55;8.10;99.90
13998;DHT22;7074;51.508;7.018;2023-03-04T09:09:22;8.00;99.90
13998;DHT22;7074;51.508;7.018;2023-03-04T09:11:50;8.00;99.90
13998;DHT22;7074;51.508;7.018;2023-03-04T09:14:17;8.00;99.90
13998;DHT22;7074;51.508;7.018;2023-03-04T09:16:44;8.00;99.90
13998;DHT22;7074;51.508;7.018;2023-03-04T09:19:13;8.00;99.90
13998;DHT22;7074;51.508;7.018;2023-03-04T09:21:40;8.10;99.90
13998;DHT22;7074;51.508;7.018;2023-03-04T09:24:07;7.90;99.90
13998;DHT22;7074;51.508;7.018;2023-03-04T09:26:34;7.90;99.90
13998;DHT22;7074;51.508;7.018;2023-03-04T09:29:02;7.90;99.90
13998;DHT22;7074;51.508;7.018;2023-03-04T09:31:30;8.00;99.90
13998;DHT22;7074;51.508;7.018;2023-03-04T09:33:59;7.90;99.90
13998;DHT22;7074;51.508;7.018;2023-03-04T09:36:27;8.00;99.90
13998;DHT22;7074;51.508;7.018;2023-03-04T09:38:58;8.10;99.90
13998;DHT22;7074;51.508;7.018;2023-03-04T09:41:28;8.00;99.90
13998;DHT22;7074;51.508;7.018;2023-03-04T09:43:58;8.10;99.90
13998;DHT22;7074;51.508;7.018;2023-03-04T09:46:31;8.10;99.90
13998;DHT22;7074;51.508;7.018;2023-03-04T09:48:59;8.00;99.90
13998;DHT22;7074;51.508;7.018;2023-03-04T09:51:42;8.10;99.90
13998;DHT22;7074;51.508;7.018;2023-03-04T09:54:16;8.20;99.90
13998;DHT22;7074;51.508;7.018;2023-03-04T09:56:44;8.10;99.90
13998;DHT22;7074;51.508;7.018;2023-03-04T09:59:18;8.10;99.90
13998;DHT22;7074;51.508;7.018;2023-03-04T10:01:52;8.20;99.90
13998;DHT22;7074;51.508;7.018;2023-03-04T10:04:29;8.20;99.90
13998;DHT22;7074;51.508;7.018;2023-03-04T10:07:00;8.30;99.90
13998;DHT22;7074;51.508;7.018;2023-03-04T10:09:28;8.40;99.90
13998;DHT22;7074;51.508;7.018;2023-03-04T10:12:00;8.50;99.90
13998;DHT22;7074;51.508;7.018;2023-03-04T10:14:38;8.40;99.90
13998;DHT22;7074;51.508;7.018;2023-03-04T10:17:12;8.40;99.90
13998;DHT22;7074;51.508;7.018;2023-03-04T10:19:50;8.50;99.90
13998;DHT22;7074;51.508;7.018;2023-03-04T10:22:25;8.50;99.90
13998;DHT22;7074;51.508;7.018;2023-03-04T10:24:54;8.50;99.90
13998;DHT22;7074;51.508;7.018;2023-03-04T10:27:22;8.50;99.90
13998;DHT22;7074;51.508;7.018;2023-03-04T10:29:50;8.60;99.90
13998;DHT22;7074;51.508;7.018;2023-03-04T10:32:19;8.70;99.90
13998;DHT22;7074;51.508;7.018;2023-03-04T10:34:46;8.70;99.90
13998;DHT22;7074;51.508;7.018;2023-03-04T10:37:14;8.70;99.90
13998;DHT22;7074;51.508;7.018;2023-03-04T10:39:44;8.70;99.90
13998;DHT22;7074;51.508;7.018;2023-03-04T10:42:27;8.60;99.90
13998;DHT22;7074;51.508;7.018;2023-03-04T10:45:02;8.60;99.90
13998;DHT22;7074;51.508;7.018;2023-03-04T10:47:30;8.50;99.90
13998;DHT22;7074;51.508;7.018;2023-03-04T10:50:01;8.70;99.90
13998;DHT22;7074;51.508;7.018;2023-03-04T10:52:31;8.70;99.90
13998;DHT22;7074;51.508;7.018;2023-03-04T10:55:14;8.80;99.90
13998;DHT22;7074;51.508;7.018;2023-03-04T10:57:45;8.80;99.90
13998;DHT22;7074;51.508;7.018;2023-03-04T11:00:26;8.80;99.90
13998;DHT22;7074;51.508;7.018;2023-03-04T11:03:19;8.90;99.90
13998;DHT22;7074;51.508;7.018;2023-03-04T11:05:48;9.00;99.90
13998;DHT22;7074;51.508;7.018;2023-03-04T11:08:17;9.10;99.90
13998;DHT22;7074;51.508;7.018;2023-03-04T11:10:46;9.00;99.90
13998;DHT22;7074;51.508;7.018;2023-03-04T11:13:17;9.10;99.90
13998;DHT22;7074;51.508;7.018;2023-03-04T11:15:51;8.80;99.90
13998;DHT22;7074;51.508;7.018;2023-03-04T11:18:22;9.10;99.90
13998;DHT22;7074;51.508;7.018;2023-03-04T11:20:53;9.30;99.90
13998;DHT22;7074;51.508;7.018;2023-03-04T11:23:31;9.50;99.90
13998;DHT22;7074;51.508;7.018;2023-03-04T11:26:03;9.60;99.90
13998;DHT22;7074;51.508;7.018;2023-03-04T11:28:38;9.40;99.90
13998;DHT22;7074;51.508;7.018;2023-03-04T11:31:13;9.30;99.90
13998;DHT22;7074;51.508;7.018;2023-03-04T11:33:45;9.30;99.90
13998;DHT22;7074;51.508;7.018;2023-03-04T11:36:27;9.40;99.90
13998;DHT22;7074;51.508;7.018;2023-03-04T11:38:56;9.30;99.90
13998;DHT22;7074;51.508;7.018;2023-03-04T11:41:29;9.30;99.90
13998;DHT22;7074;51.508;7.018;2023-03-04T11:43:58;9.40;99.90
13998;DHT22;7074;51.508;7.018;2023-03-04T11:46:53;9.40;99.90
13998;DHT22;7074;51.508;7.018;2023-03-04T11:52:29;9.30;99.90
13998;DHT22;7074;51.508;7.018;2023-03-04T11:55:20;9.40;99.90
13998;DHT22;7074;51.508;7.018;2023-03-04T11:57:55;9.50;99.90
13998;DHT22;7074;51.508;7.018;2023-03-04T12:00:35;9.50;99.90
13998;DHT22;7074;51.508;7.018;2023-03-04T12:03:21;9.50;99.90
13998;DHT22;7074;51.508;7.018;2023-03-04T12:05:58;9.40;99.90
13998;DHT22;7074;51.508;7.018;2023-03-04T12:08:44;9.30;99.90
13998;DHT22;7074;51.508;7.018;2023-03-04T12:11:18;9.30;99.90
13998;DHT22;7074;51.508;7.018;2023-03-04T12:14:05;9.40;99.90
13998;DHT22;7074;51.508;7.018;2023-03-04T12:16:55;9.50;99.90
13998;DHT22;7074;51.508;7.018;2023-03-04T12:19:35;9.60;99.90
13998;DHT22;7074;51.508;7.018;2023-03-04T12:22:15;9.70;99.90
13998;DHT22;7074;51.508;7.018;2023-03-04T12:25:02;9.80;99.90
13998;DHT22;7074;51.508;7.018;2023-03-04T12:27:38;9.80;99.90
13998;DHT22;7074;51.508;7.018;2023-03-04T12:30:27;9.90;99.90
13998;DHT22;7074;51.508;7.018;2023-03-04T12:33:05;9.90;99.90
13998;DHT22;7074;51.508;7.018;2023-03-04T12:35:37;9.70;99.90
13998;DHT22;7074;51.508;7.018;2023-03-04T12:38:24;9.60;99.90
13998;DHT22;7074;51.508;7.018;2023-03-04T12:41:01;9.60;99.90
13998;DHT22;7074;51.508;7.018;2023-03-04T12:43:44;9.50;99.90
13998;DHT22;7074;51.508;7.018;2023-03-04T12:46:36;9.50;99.90
13998;DHT22;7074;51.508;7.018;2023-03-04T12:49:18;9.40;99.90
13998;DHT22;7074;51.508;7.018;2023-03-04T12:51:54;9.50;99.90
13998;DHT22;7074;51.508;7.018;2023-03-04T12:54:30;9.30;99.90
13998;DHT22;7074;51.508;7.018;2023-03-04T12:57:00;9.10;99.90
13998;DHT22;7074;51.508;7.018;2023-03-04T12:59:33;9.10;99.90
13998;DHT22;7074;51.508;7.018;2023-03-04T13:02:20;9.20;99.90
13998;DHT22;7074;51.508;7.018;2023-03-04T13:04:58;9.20;99.90
13998;DHT22;7074;51.508;7.018;2023-03-04T13:07:38;9.30;99.90
13998;DHT22;7074;51.508;7.018;2023-03-04T13:10:10;9.40;99.90
13998;DHT22;7074;51.508;7.018;2023-03-04T13:12:48;9.50;99.90
13998;DHT22;7074;51.508;7.018;2023-03-04T13:15:29;9.40;99.90
13998;DHT22;7074;51.508;7.018;2023-03-04T13:17:59;9.40;99.90
13998;DHT22;7074;51.508;7.018;2023-03-04T13:20:37;9.40;99.90
13998;DHT22;7074;51.508;7.018;2023-03-04T13:23:23;9.20;99.90
13998;DHT22;7074;51.508;7.018;2023-03-04T13:26:21;9.20;99.90
13998;DHT22;7074;51.508;7.018;2023-03-04T13:28:54;9.10;99.90
13998;DHT22;7074;51.508;7.018;2023-03-04T13:31:56;9.00;99.90
13998;DHT22;7074;51.508;7.018;2023-03-04T13:34:59;9.00;99.90
13998;DHT22;7074;51.508;7.018;2023-03-04T13:37:58;9.00;99.90
13998;DHT22;7074;51.508;7.018;2023-03-04T13:41:13;9.00;99.90
13998;DHT22;7074;51.508;7.018;2023-03-04T13:43:51;9.00;99.90
13998;DHT22;7074;51.508;7.018;2023-03-04T13:46:40;9.10;99.90
13998;DHT22;7074;51.508;7.018;2023-03-04T13:49:17;9.20;99.90
13998;DHT22;7074;51.508;7.018;2023-03-04T13:51:47;9.10;99.90
13998;DHT22;7074;51.508;7.018;2023-03-04T13:54:19;9.30;99.90
13998;DHT22;7074;51.508;7.018;2023-03-04T13:57:16;9.30;99.90
13998;DHT22;7074;51.508;7.018;2023-03-04T13:59:44;9.40;99.90
13998;DHT22;7074;51.508;7.018;2023-03-04T14:02:14;9.50;99.90
13998;DHT22;7074;51.508;7.018;2023-03-04T14:04:56;9.50;99.90
13998;DHT22;7074;51.508;7.018;2023-03-04T14:07:27;9.50;99.90
13998;DHT22;7074;51.508;7.018;2023-03-04T14:09:57;9.50;99.90
13998;DHT22;7074;51.508;7.018;2023-03-04T14:12:26;9.50;99.90
13998;DHT22;7074;51.508;7.018;2023-03-04T14:14:56;9.60;99.90
13998;DHT22;7074;51.508;7.018;2023-03-04T14:17:28;9.60;99.90
13998;DHT22;7074;51.508;7.018;2023-03-04T14:19:56;9.50;99.90
13998;DHT22;7074;51.508;7.018;2023-03-04T14:22:28;9.30;99.90
13998;DHT22;7074;51.508;7.018;2023-03-04T14:24:59;9.40;99.90
13998;DHT22;7074;51.508;7.018;2023-03-04T14:27:27;9.50;99.90
13998;DHT22;7074;51.508;7.018;2023-03-04T14:29:56;9.50;99.90
13998;DHT22;7074;51.508;7.018;2023-03-04T14:32:24;9.50;99.90
13998;DHT22;7074;51.508;7.018;2023-03-04T14:34:56;9.50;99.90
13998;DHT22;7074;51.508;7.018;2023-03-04T14:37:28;9.60;99.90
13998;DHT22;7074;51.508;7.018;2023-03-04T14:39:58;9.60;99.90
13998;DHT22;7074;51.508;7.018;2023-03-04T14:42:33;9.60;99.90
13998;DHT22;7074;51.508;7.018;2023-03-04T14:45:03;9.60;99.90
13998;DHT22;7074;51.508;7.018;2023-03-04T14:47:34;9.60;99.90
13998;DHT22;7074;51.508;7.018;2023-03-04T14:50:04;9.60;99.90
13998;DHT22;7074;51.508;7.018;2023-03-04T14:52:36;9.50;99.90
13998;DHT22;7074;51.508;7.018;2023-03-04T14:55:26;9.50;99.90
13998;DHT22;7074;51.508;7.018;2023-03-04T14:58:04;9.70;99.90
13998;DHT22;7074;51.508;7.018;2023-03-04T15:00:33;9.70;99.90
13998;DHT22;7074;51.508;7.018;2023-03-04T15:03:02;9.70;99.90
13998;DHT22;7074;51.508;7.018;2023-03-04T15:05:32;9.70;99.90
13998;DHT22;7074;51.508;7.018;2023-03-04T15:08:03;9.70;99.90
13998;DHT22;7074;51.508;7.018;2023-03-04T15:10:33;9.70;99.90
13998;DHT22;7074;51.508;7.018;2023-03-04T15:13:06;9.60;99.90
13998;DHT22;7074;51.508;7.018;2023-03-04T15:15:39;9.60;99.90
13998;DHT22;7074;51.508;7.018;2023-03-04T15:18:21;9.70;99.90
13998;DHT22;7074;51.508;7.018;2023-03-04T15:20:56;9.70;99.90
13998;DHT22;7074;51.508;7.018;2023-03-04T15:23:26;9.50;99.90
13998;DHT22;7074;51.508;7.018;2023-03-04T15:25:54;9.60;99.90
13998;DHT22;7074;51.508;7.018;2023-03-04T15:28:22;9.70;99.90
13998;DHT22;7074;51.508;7.018;2023-03-04T15:30:50;9.60;99.90
13998;DHT22;7074;51.508;7.018;2023-03-04T15:33:19;9.70;99.90
13998;DHT22;7074;51.508;7.018;2023-03-04T15:35:51;9.70;99.90
13998;DHT22;7074;51.508;7.018;2023-03-04T15:38:19;9.70;99.90
13998;DHT22;7074;51.508;7.018;2023-03-04T15:40:48;9.70;99.90
13998;DHT22;7074;51.508;7.018;2023-03-04T15:43:18;9.50;99.90
13998;DHT22;7074;51.508;7.018;2023-03-04T15:45:46;9.50;99.90
13998;DHT22;7074;51.508;7.018;2023-03-04T15:48:15;9.50;99.90
13998;DHT22;7074;51.508;7.018;2023-03-04T15:50:46;9.40;99.90
13998;DHT22;7074;51.508;7.018;2023-03-04T15:53:16;9.40;99.90
13998;DHT22;7074;51.508;7.018;2023-03-04T15:55:46;9.30;99.90
13998;DHT22;7074;51.508;7.018;2023-03-04T15:58:14;9.40;99.90
13998;DHT22;7074;51.508;7.018;2023-03-04T16:00:42;9.40;99.90
13998;DHT22;7074;51.508;7.018;2023-03-04T16:03:14;9.40;99.90
13998;DHT22;7074;51.508;7.018;2023-03-04T16:05:44;9.30;99.90
13998;DHT22;7074;51.508;7.018;2023-03-04T16:08:13;9.30;99.90
13998;DHT22;7074;51.508;7.018;2023-03-04T16:10:41;9.10;99.90
13998;DHT22;7074;51.508;7.018;2023-03-04T16:13:14;9.20;99.90
13998;DHT22;7074;51.508;7.018;2023-03-04T16:15:42;9.10;99.90
13998;DHT22;7074;51.508;7.018;2023-03-04T16:18:10;9.00;99.90
13998;DHT22;7074;51.508;7.018;2023-03-04T16:20:38;9.00;99.90
13998;DHT22;7074;51.508;7.018;2023-03-04T16:23:11;9.10;99.90
13998;DHT22;7074;51.508;7.018;2023-03-04T16:25:42;9.10;99.90
13998;DHT22;7074;51.508;7.018;2023-03-04T16:28:10;9.10;99.90
13998;DHT22;7074;51.508;7.018;2023-03-04T16:30:39;9.10;99.90
13998;DHT22;7074;51.508;7.018;2023-03-04T16:33:07;9.10;99.90
13998;DHT22;7074;51.508;7.018;2023-03-04T16:35:36;9.00;99.90
13998;DHT22;7074;51.508;7.018;2023-03-04T16:38:05;9.00;99.90
13998;DHT22;7074;51.508;7.018;2023-03-04T16:40:38;9.10;99.90
13998;DHT22;7074;51.508;7.018;2023-03-04T16:43:05;9.10;99.90
13998;DHT22;7074;51.508;7.018;2023-03-04T16:45:33;9.10;99.90
13998;DHT22;7074;51.508;7.018;2023-03-04T16:48:04;9.00;99.90
13998;DHT22;7074;51.508;7.018;2023-03-04T16:50:31;9.10;99.90
13998;DHT22;7074;51.508;7.018;2023-03-04T16:53:03;9.00;99.90
13998;DHT22;7074;51.508;7.018;2023-03-04T16:55:31;9.00;99.90
13998;DHT22;7074;51.508;7.018;2023-03-04T16:57:58;9.00;99.90
13998;DHT22;7074;51.508;7.018;2023-03-04T17:00:27;8.90;99.90
13998;DHT22;7074;51.508;7.018;2023-03-04T17:02:57;8.90;99.90
13998;DHT22;7074;51.508;7.018;2023-03-04T17:05:28;8.90;99.90
13998;DHT22;7074;51.508;7.018;2023-03-04T17:07:56;8.90;99.90
13998;DHT22;7074;51.508;7.018;2023-03-04T17:10:23;8.90;99.90
13998;DHT22;7074;51.508;7.018;2023-03-04T17:12:51;9.00;99.90
13998;DHT22;7074;51.508;7.018;2023-03-04T17:15:18;9.00;99.90
13998;DHT22;7074;51.508;7.018;2023-03-04T17:17:46;9.00;99.90
13998;DHT22;7074;51.508;7.018;2023-03-04T17:20:16;9.00;99.90
13998;DHT22;7074;51.508;7.018;2023-03-04T17:22:45;9.00;99.90
13998;DHT22;7074;51.508;7.018;2023-03-04T17:25:13;8.90;99.90
13998;DHT22;7074;51.508;7.018;2023-03-04T17:27:41;8.80;99.90
13998;DHT22;7074;51.508;7.018;2023-03-04T17:30:10;8.90;99.90
13998;DHT22;7074;51.508;7.018;2023-03-04T17:32:38;9.00;99.90
13998;DHT22;7074;51.508;7.018;2023-03-04T17:35:07;9.00;99.90
13998;DHT22;7074;51.508;7.018;2023-03-04T17:37:36;8.90;99.90
13998;DHT22;7074;51.508;7.018;2023-03-04T17:40:07;8.90;99.90
13998;DHT22;7074;51.508;7.018;2023-03-04T17:42:38;8.90;99.90
13998;DHT22;7074;51.508;7.018;2023-03-04T17:45:07;8.70;99.90
13998;DHT22;7074;51.508;7.018;2023-03-04T17:47:35;8.70;99.90
13998;DHT22;7074;51.508;7.018;2023-03-04T17:50:03;8.90;99.90
13998;DHT22;7074;51.508;7.018;2023-03-04T17:52:31;8.90;99.90
13998;DHT22;7074;51.508;7.018;2023-03-04T17:54:58;8.80;99.90
13998;DHT22;7074;51.508;7.018;2023-03-04T17:57:27;8.80;99.90
13998;DHT22;7074;51.508;7.018;2023-03-04T17:59:54;8.70;99.90
13998;DHT22;7074;51.508;7.018;2023-03-04T18:02:22;8.70;99.90
13998;DHT22;7074;51.508;7.018;2023-03-04T18:04:49;8.80;99.90
13998;DHT22;7074;51.508;7.018;2023-03-04T18:07:16;8.60;99.90
13998;DHT22;7074;51.508;7.018;2023-03-04T18:09:43;8.50;99.90
13998;DHT22;7074;51.508;7.018;2023-03-04T18:12:12;8.40;99.90
13998;DHT22;7074;51.508;7.018;2023-03-04T18:14:40;8.40;99.90
13998;DHT22;7074;51.508;7.018;2023-03-04T18:17:08;8.40;99.90
13998;DHT22;7074;51.508;7.018;2023-03-04T18:19:35;8.40;99.90
13998;DHT22;7074;51.508;7.018;2023-03-04T18:22:02;8.30;99.90
13998;DHT22;7074;51.508;7.018;2023-03-04T18:24:29;8.50;99.90
13998;DHT22;7074;51.508;7.018;2023-03-04T18:26:57;8.40;99.90
13998;DHT22;7074;51.508;7.018;2023-03-04T18:29:24;8.50;99.90
13998;DHT22;7074;51.508;7.018;2023-03-04T18:31:53;8.30;99.90
13998;DHT22;7074;51.508;7.018;2023-03-04T18:34:20;8.40;99.90
13998;DHT22;7074;51.508;7.018;2023-03-04T18:36:47;8.30;99.90
13998;DHT22;7074;51.508;7.018;2023-03-04T18:39:17;8.50;99.90
13998;DHT22;7074;51.508;7.018;2023-03-04T18:41:44;8.30;99.90
13998;DHT22;7074;51.508;7.018;2023-03-04T18:44:11;8.40;99.90
13998;DHT22;7074;51.508;7.018;2023-03-04T18:46:41;8.40;99.90
13998;DHT22;7074;51.508;7.018;2023-03-04T18:49:11;8.40;99.90
13998;DHT22;7074;51.508;7.018;2023-03-04T18:51:39;8.40;99.90
13998;DHT22;7074;51.508;7.018;2023-03-04T18:54:07;8.30;99.90
13998;DHT22;7074;51.508;7.018;2023-03-04T18:56:38;8.30;99.90
13998;DHT22;7074;51.508;7.018;2023-03-04T18:59:08;8.40;99.90
13998;DHT22;7074;51.508;7.018;2023-03-04T19:01:38;8.30;99.90
13998;DHT22;7074;51.508;7.018;2023-03-04T19:04:06;8.30;99.90
13998;DHT22;7074;51.508;7.018;2023-03-04T19:06:35;8.40;99.90
13998;DHT22;7074;51.508;7.018;2023-03-04T19:09:04;8.40;99.90
13998;DHT22;7074;51.508;7.018;2023-03-04T19:11:31;8.40;99.90
13998;DHT22;7074;51.508;7.018;2023-03-04T19:13:58;8.40;99.90
13998;DHT22;7074;51.508;7.018;2023-03-04T19:16:25;8.40;99.90
13998;DHT22;7074;51.508;7.018;2023-03-04T19:18:53;8.40;99.90
13998;DHT22;7074;51.508;7.018;2023-03-04T19:21:20;8.30;99.90
13998;DHT22;7074;51.508;7.018;2023-03-04T19:23:49;8.50;99.90
13998;DHT22;7074;51.508;7.018;2023-03-04T19:26:17;8.20;99.90
13998;DHT22;7074;51.508;7.018;2023-03-04T19:28:44;8.30;99.90
13998;DHT22;7074;51.508;7.018;2023-03-04T19:31:11;8.40;99.90
13998;DHT22;7074;51.508;7.018;2023-03-04T19:33:39;8.30;99.90
13998;DHT22;7074;51.508;7.018;2023-03-04T19:36:08;8.20;99.90
13998;DHT22;7074;51.508;7.018;2023-03-04T19:38:35;8.20;99.90
13998;DHT22;7074;51.508;7.018;2023-03-04T19:41:12;8.30;99.90
13998;DHT22;7074;51.508;7.018;2023-03-04T19:43:40;8.30;99.90
13998;DHT22;7074;51.508;7.018;2023-03-04T19:46:08;8.30;99.90
13998;DHT22;7074;51.508;7.018;2023-03-04T19:48:37;8.30;99.90
13998;DHT22;7074;51.508;7.018;2023-03-04T19:53:38;8.30;99.90
13998;DHT22;7074;51.508;7.018;2023-03-04T19:56:06;8.40;99.90
13998;DHT22;7074;51.508;7.018;2023-03-04T19:58:36;8.40;99.90
13998;DHT22;7074;51.508;7.018;2023-03-04T20:01:04;8.20;99.90
13998;DHT22;7074;51.508;7.018;2023-03-04T20:03:32;8.30;99.90
13998;DHT22;7074;51.508;7.018;2023-03-04T20:06:04;8.40;99.90
13998;DHT22;7074;51.508;7.018;2023-03-04T20:08:35;8.20;99.90
13998;DHT22;7074;51.508;7.018;2023-03-04T20:11:06;8.20;99.90
13998;DHT22;7074;51.508;7.018;2023-03-04T20:13:35;8.20;99.90
13998;DHT22;7074;51.508;7.018;2023-03-04T20:16:08;8.20;99.90
13998;DHT22;7074;51.508;7.018;2023-03-04T20:18:37;8.00;99.90
13998;DHT22;7074;51.508;7.018;2023-03-04T20:21:21;8.00;99.90
13998;DHT22;7074;51.508;7.018;2023-03-04T20:24:03;8.00;99.90
13998;DHT22;7074;51.508;7.018;2023-03-04T20:26:31;8.00;99.90
13998;DHT22;7074;51.508;7.018;2023-03-04T20:29:00;8.00;99.90
13998;DHT22;7074;51.508;7.018;2023-03-04T20:31:29;7.80;99.90
13998;DHT22;7074;51.508;7.018;2023-03-04T20:33:58;7.70;99.90
13998;DHT22;7074;51.508;7.018;2023-03-04T20:36:27;7.80;99.90
13998;DHT22;7074;51.508;7.018;2023-03-04T20:38:55;7.80;99.90
13998;DHT22;7074;51.508;7.018;2023-03-04T20:41:26;7.80;99.90
13998;DHT22;7074;51.508;7.018;2023-03-04T20:43:55;7.80;99.90
13998;DHT22;7074;51.508;7.018;2023-03-04T20:46:31;7.70;99.90
13998;DHT22;7074;51.508;7.018;2023-03-04T20:49:20;7.70;99.90
13998;DHT22;7074;51.508;7.018;2023-03-04T20:51:55;7.70;99.90
13998;DHT22;7074;51.508;7.018;2023-03-04T20:54:40;7.70;99.90
13998;DHT22;7074;51.508;7.018;2023-03-04T20:57:08;7.90;99.90
13998;DHT22;7074;51.508;7.018;2023-03-04T20:59:37;7.90;99.90
13998;DHT22;7074;51.508;7.018;2023-03-04T21:02:13;7.90;99.90
13998;DHT22;7074;51.508;7.018;2023-03-04T21:04:45;7.90;99.90
13998;DHT22;7074;51.508;7.018;2023-03-04T21:07:16;7.80;99.90
13998;DHT22;7074;51.508;7.018;2023-03-04T21:09:43;7.60;99.90
13998;DHT22;7074;51.508;7.018;2023-03-04T21:12:11;7.60;99.90
13998;DHT22;7074;51.508;7.018;2023-03-04T21:14:45;7.70;99.90
13998;DHT22;7074;51.508;7.018;2023-03-04T21:17:27;7.70;99.90
13998;DHT22;7074;51.508;7.018;2023-03-04T21:19:55;7.80;99.90
13998;DHT22;7074;51.508;7.018;2023-03-04T21:22:27;7.80;99.90
13998;DHT22;7074;51.508;7.018;2023-03-04T21:24:58;7.80;99.90
13998;DHT22;7074;51.508;7.018;2023-03-04T21:27:30;7.80;99.90
13998;DHT22;7074;51.508;7.018;2023-03-04T21:30:11;7.90;99.90
13998;DHT22;7074;51.508;7.018;2023-03-04T21:32:46;7.90;99.90
13998;DHT22;7074;51.508;7.018;2023-03-04T21:35:30;7.90;99.90
13998;DHT22;7074;51.508;7.018;2023-03-04T21:38:05;7.90;99.90
13998;DHT22;7074;51.508;7.018;2023-03-04T21:40:42;7.90;99.90